sensor_id;sensor_type;location;lat;lon;timestamp;P1;durP1;ratioP1;P2;durP2;ratioP2
9524;SDS011;15940;48.734;9.112;2023-04-25T00:02:13;1.70;;;1.60;;
9524;SDS011;15940;48.734;9.112;2023-04-25T00:04:40;3.00;;;1.87;;
9524;SDS011;15940;48.734;9.112;2023-04-25T00:07:08;1.83;;;1.70;;
9524;SDS011;15940;48.734;9.112;2023-04-25T00:09:35;3.60;;;1.80;;
9524;SDS011;15940;48.734;9.112;2023-04-25T00:12:02;2.50;;;1.70;;
9524;SDS011;15940;48.734;9.112;2023-04-25T00:14:30;2.00;;;1.70;;
9524;SDS011;15940;48.734;9.112;2023-04-25T00:16:59;1.53;;;1.43;;
9524;SDS011;15940;48.734;9.112;2023-04-25T00:19:26;1.70;;;1.60;;
9524;SDS011;15940;48.734;9.112;2023-04-25T00:21:53;1.50;;;1.40;;
9524;SDS011;15940;48.734;9.112;2023-04-25T00:24:21;1.70;;;1.60;;
9524;SDS011;15940;48.734;9.112;2023-04-25T00:26:48;2.90;;;1.70;;
9524;SDS011;15940;48.734;9.112;2023-04-25T00:29:15;2.53;;;1.70;;
9524;SDS011;15940;48.734;9.112;2023-04-25T00:31:42;1.70;;;1.60;;
9524;SDS011;15940;48.734;9.112;2023-04-25T00:34:09;1.77;;;1.67;;
9524;SDS011;15940;48.734;9.112;2023-04-25T00:36:35;1.60;;;1.50;;
9524;SDS011;15940;48.734;9.112;2023-04-25T00:39:03;1.77;;;1.67;;
9524;SDS011;15940;48.734;9.112;2023-04-25T00:41:32;2.00;;;1.80;;
9524;SDS011;15940;48.734;9.112;2023-04-25T00:43:59;1.77;;;1.63;;
9524;SDS011;15940;48.734;9.112;2023-04-25T00:46:28;2.07;;;1.97;;
9524;SDS011;15940;48.734;9.112;2023-04-25T00:48:55;1.83;;;1.70;;
9524;SDS011;15940;48.734;9.112;2023-04-25T00:51:22;2.03;;;1.80;;
9524;SDS011;15940;48.734;9.112;2023-04-25T00:53:51;2.27;;;1.83;;
9524;SDS011;15940;48.734;9.112;2023-04-25T00:56:19;2.10;;;1.90;;
9524;SDS011;15940;48.734;9.112;2023-04-25T00:58:48;2.13;;;1.97;;
9524;SDS011;15940;48.734;9.112;2023-04-25T01:01:18;2.40;;;1.90;;
9524;SDS011;15940;48.734;9.112;2023-04-25T01:03:45;1.83;;;1.70;;
9524;SDS011;15940;48.734;9.112;2023-04-25T01:06:14;1.90;;;1.80;;
9524;SDS011;15940;48.734;9.112;2023-04-25T01:08:42;1.83;;;1.73;;
9524;SDS011;15940;48.734;9.112;2023-04-25T01:11:09;4.80;;;2.23;;
9524;SDS011;15940;48.734;9.112;2023-04-25T01:13:36;2.00;;;1.80;;
9524;SDS011;15940;48.734;9.112;2023-04-25T01:16:05;1.93;;;1.73;;
9524;SDS011;15940;48.734;9.112;2023-04-25T01:18:32;3.53;;;1.87;;
9524;SDS011;15940;48.734;9.112;2023-04-25T01:21:10;2.17;;;1.93;;
9524;SDS011;15940;48.734;9.112;2023-04-25T01:23:38;2.57;;;2.20;;
9524;SDS011;15940;48.734;9.112;2023-04-25T01:26:06;1.97;;;1.83;;
9524;SDS011;15940;48.734;9.112;2023-04-25T01:28:34;2.10;;;2.00;;
9524;SDS011;15940;48.734;9.112;2023-04-25T01:31:02;2.47;;;2.03;;
9524;SDS011;15940;48.734;9.112;2023-04-25T01:33:30;2.93;;;2.00;;
9524;SDS011;15940;48.734;9.112;2023-04-25T01:35:57;2.20;;;2.00;;
9524;SDS011;15940;48.734;9.112;2023-04-25T01:38:26;3.67;;;1.87;;
9524;SDS011;15940;48.734;9.112;2023-04-25T01:40:53;2.13;;;1.93;;
9524;SDS011;15940;48.734;9.112;2023-04-25T01:43:21;3.43;;;2.10;;
9524;SDS011;15940;48.734;9.112;2023-04-25T01:45:49;2.20;;;2.00;;
9524;SDS011;15940;48.734;9.112;2023-04-25T01:48:16;2.17;;;2.07;;
9524;SDS011;15940;48.734;9.112;2023-04-25T01:50:43;3.30;;;2.10;;
9524;SDS011;15940;48.734;9.112;2023-04-25T01:53:11;2.97;;;2.47;;
9524;SDS011;15940;48.734;9.112;2023-04-25T01:55:41;2.23;;;2.13;;
9524;SDS011;15940;48.734;9.112;2023-04-25T01:58:08;3.07;;;2.20;;
9524;SDS011;15940;48.734;9.112;2023-04-25T02:00:37;2.30;;;2.10;;
9524;SDS011;15940;48.734;9.112;2023-04-25T02:03:05;2.23;;;2.00;;
9524;SDS011;15940;48.734;9.112;2023-04-25T02:05:34;2.10;;;1.90;;
9524;SDS011;15940;48.734;9.112;2023-04-25T02:08:01;2.50;;;1.83;;
9524;SDS011;15940;48.734;9.112;2023-04-25T02:10:29;2.50;;;1.90;;
9524;SDS011;15940;48.734;9.112;2023-04-25T02:12:58;1.97;;;1.77;;
9524;SDS011;15940;48.734;9.112;2023-04-25T02:15:24;2.63;;;2.10;;
9524;SDS011;15940;48.734;9.112;2023-04-25T02:17:51;2.33;;;1.90;;
9524;SDS011;15940;48.734;9.112;2023-04-25T02:20:19;3.00;;;2.30;;
9524;SDS011;15940;48.734;9.112;2023-04-25T02:22:47;2.17;;;1.73;;
9524;SDS011;15940;48.734;9.112;2023-04-25T02:25:14;3.10;;;1.97;;
9524;SDS011;15940;48.734;9.112;2023-04-25T02:27:42;2.37;;;2.07;;
9524;SDS011;15940;48.734;9.112;2023-04-25T02:30:10;1.80;;;1.60;;
9524;SDS011;15940;48.734;9.112;2023-04-25T02:32:38;2.07;;;1.80;;
9524;SDS011;15940;48.734;9.112;2023-04-25T02:35:06;4.93;;;1.90;;
9524;SDS011;15940;48.734;9.112;2023-04-25T02:37:34;2.20;;;1.83;;
9524;SDS011;15940;48.734;9.112;2023-04-25T02:40:05;3.37;;;2.20;;
9524;SDS011;15940;48.734;9.112;2023-04-25T02:42:33;1.80;;;1.70;;
9524;SDS011;15940;48.734;9.112;2023-04-25T02:45:00;2.90;;;1.90;;
9524;SDS011;15940;48.734;9.112;2023-04-25T02:47:29;2.27;;;1.90;;
9524;SDS011;15940;48.734;9.112;2023-04-25T02:49:56;1.93;;;1.83;;
9524;SDS011;15940;48.734;9.112;2023-04-25T02:52:23;2.80;;;2.20;;
9524;SDS011;15940;48.734;9.112;2023-04-25T02:54:50;3.93;;;1.80;;
9524;SDS011;15940;48.734;9.112;2023-04-25T02:57:17;2.23;;;1.93;;
9524;SDS011;15940;48.734;9.112;2023-04-25T02:59:44;2.20;;;2.00;;
9524;SDS011;15940;48.734;9.112;2023-04-25T03:02:10;2.87;;;2.20;;
9524;SDS011;15940;48.734;9.112;2023-04-25T03:04:39;2.40;;;2.03;;
9524;SDS011;15940;48.734;9.112;2023-04-25T03:07:06;2.20;;;2.00;;
9524;SDS011;15940;48.734;9.112;2023-04-25T03:09:33;2.87;;;2.07;;
9524;SDS011;15940;48.734;9.112;2023-04-25T03:12:00;2.00;;;1.90;;
9524;SDS011;15940;48.734;9.112;2023-04-25T03:14:27;2.63;;;1.87;;
9524;SDS011;15940;48.734;9.112;2023-04-25T03:16:54;2.33;;;2.17;;
9524;SDS011;15940;48.734;9.112;2023-04-25T03:19:21;2.23;;;2.03;;
9524;SDS011;15940;48.734;9.112;2023-04-25T03:21:49;3.13;;;2.10;;
9524;SDS011;15940;48.734;9.112;2023-04-25T03:24:16;2.37;;;1.90;;
9524;SDS011;15940;48.734;9.112;2023-04-25T03:26:43;2.30;;;1.70;;
9524;SDS011;15940;48.734;9.112;2023-04-25T03:29:10;1.80;;;1.70;;
9524;SDS011;15940;48.734;9.112;2023-04-25T03:31:37;2.23;;;2.00;;
9524;SDS011;15940;48.734;9.112;2023-04-25T03:34:04;2.07;;;1.97;;
9524;SDS011;15940;48.734;9.112;2023-04-25T03:36:31;2.40;;;2.20;;
9524;SDS011;15940;48.734;9.112;2023-04-25T03:39:00;3.17;;;2.20;;
9524;SDS011;15940;48.734;9.112;2023-04-25T03:41:27;2.40;;;2.20;;
9524;SDS011;15940;48.734;9.112;2023-04-25T03:43:54;2.60;;;2.00;;
9524;SDS011;15940;48.734;9.112;2023-04-25T03:46:21;2.00;;;1.90;;
9524;SDS011;15940;48.734;9.112;2023-04-25T03:48:48;2.87;;;2.00;;
9524;SDS011;15940;48.734;9.112;2023-04-25T03:51:15;3.07;;;2.17;;
9524;SDS011;15940;48.734;9.112;2023-04-25T03:53:42;2.40;;;2.20;;
9524;SDS011;15940;48.734;9.112;2023-04-25T03:56:10;2.60;;;2.40;;
9524;SDS011;15940;48.734;9.112;2023-04-25T03:58:37;2.83;;;2.27;;
9524;SDS011;15940;48.734;9.112;2023-04-25T04:01:04;2.03;;;1.90;;
9524;SDS011;15940;48.734;9.112;2023-04-25T04:03:32;2.50;;;2.07;;
9524;SDS011;15940;48.734;9.112;2023-04-25T04:06:00;2.53;;;2.33;;
9524;SDS011;15940;48.734;9.112;2023-04-25T04:08:28;3.20;;;2.10;;
9524;SDS011;15940;48.734;9.112;2023-04-25T04:10:56;3.33;;;2.23;;
9524;SDS011;15940;48.734;9.112;2023-04-25T04:13:25;3.10;;;2.33;;
9524;SDS011;15940;48.734;9.112;2023-04-25T04:15:52;5.23;;;2.03;;
9524;SDS011;15940;48.734;9.112;2023-04-25T04:18:19;2.73;;;2.50;;
9524;SDS011;15940;48.734;9.112;2023-04-25T04:20:46;2.50;;;2.30;;
9524;SDS011;15940;48.734;9.112;2023-04-25T04:23:13;4.70;;;2.80;;
9524;SDS011;15940;48.734;9.112;2023-04-25T04:25:40;4.20;;;2.50;;
9524;SDS011;15940;48.734;9.112;2023-04-25T04:28:07;3.07;;;2.73;;
9524;SDS011;15940;48.734;9.112;2023-04-25T04:30:35;5.70;;;2.73;;
9524;SDS011;15940;48.734;9.112;2023-04-25T04:33:02;2.40;;;2.30;;
9524;SDS011;15940;48.734;9.112;2023-04-25T04:35:29;2.87;;;2.43;;
9524;SDS011;15940;48.734;9.112;2023-04-25T04:37:56;3.20;;;2.50;;
9524;SDS011;15940;48.734;9.112;2023-04-25T04:40:23;4.20;;;2.57;;
9524;SDS011;15940;48.734;9.112;2023-04-25T04:42:51;4.30;;;2.40;;
9524;SDS011;15940;48.734;9.112;2023-04-25T04:45:21;2.60;;;2.40;;
9524;SDS011;15940;48.734;9.112;2023-04-25T04:47:50;3.13;;;2.50;;
9524;SDS011;15940;48.734;9.112;2023-04-25T04:50:17;3.30;;;2.30;;
9524;SDS011;15940;48.734;9.112;2023-04-25T04:52:44;3.93;;;2.50;;
9524;SDS011;15940;48.734;9.112;2023-04-25T04:55:11;5.27;;;2.70;;
9524;SDS011;15940;48.734;9.112;2023-04-25T04:57:38;4.33;;;2.70;;
9524;SDS011;15940;48.734;9.112;2023-04-25T05:00:05;2.67;;;2.47;;
9524;SDS011;15940;48.734;9.112;2023-04-25T05:02:35;3.37;;;3.00;;
9524;SDS011;15940;48.734;9.112;2023-04-25T05:05:05;2.70;;;2.50;;
9524;SDS011;15940;48.734;9.112;2023-04-25T05:07:32;3.27;;;2.50;;
9524;SDS011;15940;48.734;9.112;2023-04-25T05:09:59;3.00;;;2.80;;
9524;SDS011;15940;48.734;9.112;2023-04-25T05:12:26;5.53;;;2.93;;
9524;SDS011;15940;48.734;9.112;2023-04-25T05:14:53;2.97;;;2.47;;
9524;SDS011;15940;48.734;9.112;2023-04-25T05:17:20;4.20;;;3.00;;
9524;SDS011;15940;48.734;9.112;2023-04-25T05:19:47;2.90;;;2.60;;
9524;SDS011;15940;48.734;9.112;2023-04-25T05:22:15;2.83;;;2.50;;
9524;SDS011;15940;48.734;9.112;2023-04-25T05:24:42;5.50;;;2.90;;
9524;SDS011;15940;48.734;9.112;2023-04-25T05:27:09;4.03;;;2.93;;
9524;SDS011;15940;48.734;9.112;2023-04-25T05:29:36;3.17;;;2.87;;
9524;SDS011;15940;48.734;9.112;2023-04-25T05:32:03;4.63;;;2.93;;
9524;SDS011;15940;48.734;9.112;2023-04-25T05:34:32;3.67;;;3.10;;
9524;SDS011;15940;48.734;9.112;2023-04-25T05:36:59;5.67;;;3.10;;
9524;SDS011;15940;48.734;9.112;2023-04-25T05:39:27;5.73;;;4.10;;
9524;SDS011;15940;48.734;9.112;2023-04-25T05:41:55;4.53;;;3.23;;
9524;SDS011;15940;48.734;9.112;2023-04-25T05:44:22;5.60;;;4.13;;
9524;SDS011;15940;48.734;9.112;2023-04-25T05:46:49;4.00;;;3.60;;
9524;SDS011;15940;48.734;9.112;2023-04-25T05:49:15;5.50;;;4.33;;
9524;SDS011;15940;48.734;9.112;2023-04-25T05:51:42;5.13;;;3.57;;
9524;SDS011;15940;48.734;9.112;2023-04-25T05:54:09;3.70;;;3.30;;
9524;SDS011;15940;48.734;9.112;2023-04-25T05:56:38;5.43;;;3.00;;
9524;SDS011;15940;48.734;9.112;2023-04-25T05:59:05;4.60;;;3.13;;
9524;SDS011;15940;48.734;9.112;2023-04-25T06:01:32;4.70;;;3.20;;
9524;SDS011;15940;48.734;9.112;2023-04-25T06:03:59;3.50;;;3.20;;
9524;SDS011;15940;48.734;9.112;2023-04-25T06:06:26;3.00;;;2.80;;
9524;SDS011;15940;48.734;9.112;2023-04-25T06:08:53;4.00;;;2.97;;
9524;SDS011;15940;48.734;9.112;2023-04-25T06:11:20;4.53;;;3.00;;
9524;SDS011;15940;48.734;9.112;2023-04-25T06:13:49;3.20;;;2.90;;
9524;SDS011;15940;48.734;9.112;2023-04-25T06:16:15;3.60;;;3.30;;
9524;SDS011;15940;48.734;9.112;2023-04-25T06:18:42;3.60;;;3.30;;
9524;SDS011;15940;48.734;9.112;2023-04-25T06:21:09;3.57;;;3.20;;
9524;SDS011;15940;48.734;9.112;2023-04-25T06:23:36;4.83;;;3.20;;
9524;SDS011;15940;48.734;9.112;2023-04-25T06:26:03;3.27;;;3.03;;
9524;SDS011;15940;48.734;9.112;2023-04-25T06:28:30;3.63;;;2.70;;
9524;SDS011;15940;48.734;9.112;2023-04-25T06:30:59;3.27;;;3.07;;
9524;SDS011;15940;48.734;9.112;2023-04-25T06:33:26;3.90;;;3.60;;
9524;SDS011;15940;48.734;9.112;2023-04-25T06:35:53;4.50;;;3.33;;
9524;SDS011;15940;48.734;9.112;2023-04-25T06:38:20;3.80;;;3.50;;
9524;SDS011;15940;48.734;9.112;2023-04-25T06:40:47;4.20;;;3.10;;
9524;SDS011;15940;48.734;9.112;2023-04-25T06:43:14;3.43;;;3.13;;
9524;SDS011;15940;48.734;9.112;2023-04-25T06:45:41;4.97;;;4.13;;
9524;SDS011;15940;48.734;9.112;2023-04-25T06:48:09;3.40;;;3.10;;
9524;SDS011;15940;48.734;9.112;2023-04-25T06:50:36;3.93;;;3.37;;
9524;SDS011;15940;48.734;9.112;2023-04-25T06:53:03;3.27;;;3.00;;
9524;SDS011;15940;48.734;9.112;2023-04-25T06:55:30;3.70;;;3.40;;
9524;SDS011;15940;48.734;9.112;2023-04-25T06:57:57;5.17;;;3.73;;
9524;SDS011;15940;48.734;9.112;2023-04-25T07:00:24;5.17;;;4.53;;
9524;SDS011;15940;48.734;9.112;2023-04-25T07:02:51;4.90;;;4.47;;
9524;SDS011;15940;48.734;9.112;2023-04-25T07:05:19;4.13;;;3.73;;
9524;SDS011;15940;48.734;9.112;2023-04-25T07:07:46;3.73;;;3.40;;
9524;SDS011;15940;48.734;9.112;2023-04-25T07:10:13;4.10;;;3.80;;
9524;SDS011;15940;48.734;9.112;2023-04-25T07:12:40;4.43;;;4.03;;
9524;SDS011;15940;48.734;9.112;2023-04-25T07:15:07;3.87;;;3.57;;
9524;SDS011;15940;48.734;9.112;2023-04-25T07:17:36;4.97;;;3.70;;
9524;SDS011;15940;48.734;9.112;2023-04-25T07:20:03;4.20;;;3.80;;
9524;SDS011;15940;48.734;9.112;2023-04-25T07:22:34;5.03;;;3.93;;
9524;SDS011;15940;48.734;9.112;2023-04-25T07:25:01;4.30;;;3.90;;
9524;SDS011;15940;48.734;9.112;2023-04-25T07:27:29;4.60;;;3.80;;
9524;SDS011;15940;48.734;9.112;2023-04-25T07:29:56;4.03;;;3.57;;
9524;SDS011;15940;48.734;9.112;2023-04-25T07:32:23;4.33;;;3.57;;
9524;SDS011;15940;48.734;9.112;2023-04-25T07:34:51;3.80;;;3.50;;
9524;SDS011;15940;48.734;9.112;2023-04-25T07:37:18;4.50;;;4.10;;
9524;SDS011;15940;48.734;9.112;2023-04-25T07:39:46;4.73;;;3.97;;
9524;SDS011;15940;48.734;9.112;2023-04-25T07:42:13;4.97;;;4.33;;
9524;SDS011;15940;48.734;9.112;2023-04-25T07:44:40;4.93;;;4.43;;
9524;SDS011;15940;48.734;9.112;2023-04-25T07:47:08;5.17;;;4.30;;
9524;SDS011;15940;48.734;9.112;2023-04-25T07:49:35;4.60;;;4.00;;
9524;SDS011;15940;48.734;9.112;2023-04-25T07:52:03;6.17;;;4.60;;
9524;SDS011;15940;48.734;9.112;2023-04-25T07:54:31;5.13;;;4.60;;
9524;SDS011;15940;48.734;9.112;2023-04-25T07:56:59;4.23;;;3.83;;
9524;SDS011;15940;48.734;9.112;2023-04-25T07:59:27;4.70;;;4.30;;
9524;SDS011;15940;48.734;9.112;2023-04-25T08:01:54;6.13;;;4.57;;
9524;SDS011;15940;48.734;9.112;2023-04-25T08:04:22;6.60;;;4.70;;
9524;SDS011;15940;48.734;9.112;2023-04-25T08:06:50;6.53;;;4.57;;
9524;SDS011;15940;48.734;9.112;2023-04-25T08:09:17;5.50;;;4.50;;
9524;SDS011;15940;48.734;9.112;2023-04-25T08:11:44;5.03;;;4.30;;
9524;SDS011;15940;48.734;9.112;2023-04-25T08:14:13;5.47;;;4.60;;
9524;SDS011;15940;48.734;9.112;2023-04-25T08:16:40;5.10;;;4.60;;
9524;SDS011;15940;48.734;9.112;2023-04-25T08:19:07;4.43;;;4.03;;
9524;SDS011;15940;48.734;9.112;2023-04-25T08:21:34;5.00;;;4.50;;
9524;SDS011;15940;48.734;9.112;2023-04-25T08:24:00;7.40;;;5.30;;
9524;SDS011;15940;48.734;9.112;2023-04-25T08:26:28;5.73;;;5.17;;
9524;SDS011;15940;48.734;9.112;2023-04-25T08:28:55;6.83;;;6.07;;
9524;SDS011;15940;48.734;9.112;2023-04-25T08:31:23;8.30;;;6.30;;
9524;SDS011;15940;48.734;9.112;2023-04-25T08:33:50;6.70;;;5.40;;
9524;SDS011;15940;48.734;9.112;2023-04-25T08:36:17;8.50;;;6.27;;
9524;SDS011;15940;48.734;9.112;2023-04-25T08:38:44;7.20;;;5.83;;
9524;SDS011;15940;48.734;9.112;2023-04-25T08:41:11;7.57;;;6.10;;
9524;SDS011;15940;48.734;9.112;2023-04-25T08:43:41;6.20;;;5.60;;
9524;SDS011;15940;48.734;9.112;2023-04-25T08:46:09;6.20;;;5.07;;
9524;SDS011;15940;48.734;9.112;2023-04-25T08:48:40;5.13;;;4.73;;
9524;SDS011;15940;48.734;9.112;2023-04-25T08:51:08;6.30;;;5.50;;
9524;SDS011;15940;48.734;9.112;2023-04-25T08:53:41;6.33;;;5.47;;
9524;SDS011;15940;48.734;9.112;2023-04-25T08:56:11;5.80;;;5.20;;
9524;SDS011;15940;48.734;9.112;2023-04-25T08:58:42;7.97;;;5.07;;
9524;SDS011;15940;48.734;9.112;2023-04-25T09:01:10;5.37;;;4.87;;
9524;SDS011;15940;48.734;9.112;2023-04-25T09:03:37;5.83;;;5.00;;
9524;SDS011;15940;48.734;9.112;2023-04-25T09:06:06;6.17;;;4.60;;
9524;SDS011;15940;48.734;9.112;2023-04-25T09:08:35;5.13;;;4.53;;
9524;SDS011;15940;48.734;9.112;2023-04-25T09:11:05;5.17;;;4.67;;
9524;SDS011;15940;48.734;9.112;2023-04-25T09:13:32;7.60;;;4.80;;
9524;SDS011;15940;48.734;9.112;2023-04-25T09:15:59;5.00;;;4.57;;
9524;SDS011;15940;48.734;9.112;2023-04-25T09:18:27;4.90;;;4.50;;
9524;SDS011;15940;48.734;9.112;2023-04-25T09:20:58;5.43;;;4.93;;
9524;SDS011;15940;48.734;9.112;2023-04-25T09:23:38;6.07;;;4.40;;
9524;SDS011;15940;48.734;9.112;2023-04-25T09:26:07;4.67;;;4.27;;
9524;SDS011;15940;48.734;9.112;2023-04-25T09:28:34;6.87;;;5.00;;
9524;SDS011;15940;48.734;9.112;2023-04-25T09:31:02;5.07;;;4.57;;
9524;SDS011;15940;48.734;9.112;2023-04-25T09:33:30;5.23;;;4.73;;
9524;SDS011;15940;48.734;9.112;2023-04-25T09:36:02;5.30;;;4.80;;
9524;SDS011;15940;48.734;9.112;2023-04-25T09:38:32;3.67;;;3.37;;
9524;SDS011;15940;48.734;9.112;2023-04-25T09:41:06;5.73;;;3.60;;
9524;SDS011;15940;48.734;9.112;2023-04-25T09:43:34;4.03;;;3.73;;
9524;SDS011;15940;48.734;9.112;2023-04-25T09:46:01;4.33;;;3.93;;
9524;SDS011;15940;48.734;9.112;2023-04-25T09:48:33;4.83;;;4.43;;
9524;SDS011;15940;48.734;9.112;2023-04-25T09:51:05;4.60;;;4.20;;
9524;SDS011;15940;48.734;9.112;2023-04-25T09:53:34;4.03;;;3.73;;
9524;SDS011;15940;48.734;9.112;2023-04-25T09:56:03;3.50;;;3.20;;
9524;SDS011;15940;48.734;9.112;2023-04-25T09:58:32;4.33;;;2.73;;
9524;SDS011;15940;48.734;9.112;2023-04-25T10:01:01;3.60;;;2.67;;
9524;SDS011;15940;48.734;9.112;2023-04-25T10:03:31;3.30;;;3.00;;
9524;SDS011;15940;48.734;9.112;2023-04-25T10:06:00;3.43;;;2.83;;
9524;SDS011;15940;48.734;9.112;2023-04-25T10:08:31;2.73;;;2.53;;
9524;SDS011;15940;48.734;9.112;2023-04-25T10:11:02;1.97;;;1.83;;
9524;SDS011;15940;48.734;9.112;2023-04-25T10:13:32;1.83;;;1.73;;
9524;SDS011;15940;48.734;9.112;2023-04-25T10:16:00;2.10;;;2.00;;
9524;SDS011;15940;48.734;9.112;2023-04-25T10:18:48;1.60;;;1.50;;
9524;SDS011;15940;48.734;9.112;2023-04-25T10:21:16;2.43;;;2.23;;
9524;SDS011;15940;48.734;9.112;2023-04-25T10:23:47;1.80;;;1.63;;
9524;SDS011;15940;48.734;9.112;2023-04-25T10:26:15;2.13;;;1.60;;
9524;SDS011;15940;48.734;9.112;2023-04-25T10:28:56;2.00;;;1.70;;
9524;SDS011;15940;48.734;9.112;2023-04-25T10:31:24;2.40;;;1.57;;
9524;SDS011;15940;48.734;9.112;2023-04-25T10:33:51;3.03;;;1.80;;
9524;SDS011;15940;48.734;9.112;2023-04-25T10:36:20;1.93;;;1.60;;
9524;SDS011;15940;48.734;9.112;2023-04-25T10:38:50;1.43;;;1.33;;
9524;SDS011;15940;48.734;9.112;2023-04-25T10:41:19;1.17;;;1.17;;
9524;SDS011;15940;48.734;9.112;2023-04-25T10:43:48;1.73;;;1.50;;
9524;SDS011;15940;48.734;9.112;2023-04-25T10:46:25;1.63;;;1.53;;
9524;SDS011;15940;48.734;9.112;2023-04-25T10:48:56;1.70;;;1.60;;
9524;SDS011;15940;48.734;9.112;2023-04-25T10:51:24;1.20;;;1.20;;
9524;SDS011;15940;48.734;9.112;2023-04-25T10:54:01;2.80;;;1.30;;
9524;SDS011;15940;48.734;9.112;2023-04-25T10:56:29;1.63;;;1.53;;
9524;SDS011;15940;48.734;9.112;2023-04-25T10:59:04;1.47;;;1.37;;
9524;SDS011;15940;48.734;9.112;2023-04-25T11:01:35;1.70;;;1.60;;
9524;SDS011;15940;48.734;9.112;2023-04-25T11:04:04;1.27;;;1.27;;
9524;SDS011;15940;48.734;9.112;2023-04-25T11:06:34;1.10;;;1.10;;
9524;SDS011;15940;48.734;9.112;2023-04-25T11:09:23;3.73;;;2.03;;
9524;SDS011;15940;48.734;9.112;2023-04-25T11:11:53;4.30;;;2.40;;
9524;SDS011;15940;48.734;9.112;2023-04-25T11:14:21;2.33;;;2.17;;
9524;SDS011;15940;48.734;9.112;2023-04-25T11:16:52;2.90;;;2.70;;
9524;SDS011;15940;48.734;9.112;2023-04-25T11:19:20;3.27;;;2.60;;
9524;SDS011;15940;48.734;9.112;2023-04-25T11:21:47;2.60;;;2.40;;
9524;SDS011;15940;48.734;9.112;2023-04-25T11:24:15;2.70;;;2.50;;
9524;SDS011;15940;48.734;9.112;2023-04-25T11:26:44;2.03;;;1.90;;
9524;SDS011;15940;48.734;9.112;2023-04-25T11:29:13;2.33;;;2.13;;
9524;SDS011;15940;48.734;9.112;2023-04-25T11:31:42;2.20;;;2.10;;
9524;SDS011;15940;48.734;9.112;2023-04-25T11:34:10;2.00;;;1.90;;
9524;SDS011;15940;48.734;9.112;2023-04-25T11:36:38;2.10;;;2.00;;
9524;SDS011;15940;48.734;9.112;2023-04-25T11:39:05;1.80;;;1.70;;
9524;SDS011;15940;48.734;9.112;2023-04-25T11:41:32;2.23;;;2.00;;
9524;SDS011;15940;48.734;9.112;2023-04-25T11:44:01;2.40;;;2.20;;
9524;SDS011;15940;48.734;9.112;2023-04-25T11:46:29;2.00;;;1.90;;
9524;SDS011;15940;48.734;9.112;2023-04-25T11:48:57;2.33;;;1.80;;
9524;SDS011;15940;48.734;9.112;2023-04-25T11:51:23;2.33;;;2.13;;
9524;SDS011;15940;48.734;9.112;2023-04-25T11:53:51;2.50;;;2.30;;
9524;SDS011;15940;48.734;9.112;2023-04-25T11:56:18;2.37;;;2.17;;
9524;SDS011;15940;48.734;9.112;2023-04-25T11:58:55;2.60;;;2.40;;
9524;SDS011;15940;48.734;9.112;2023-04-25T12:01:26;2.23;;;2.10;;
9524;SDS011;15940;48.734;9.112;2023-04-25T12:03:55;3.00;;;2.53;;
9524;SDS011;15940;48.734;9.112;2023-04-25T12:06:25;2.80;;;2.60;;
9524;SDS011;15940;48.734;9.112;2023-04-25T12:09:03;3.00;;;2.80;;
9524;SDS011;15940;48.734;9.112;2023-04-25T12:11:40;3.33;;;3.00;;
9524;SDS011;15940;48.734;9.112;2023-04-25T12:14:08;3.27;;;2.97;;
9524;SDS011;15940;48.734;9.112;2023-04-25T12:16:43;3.50;;;3.03;;
9524;SDS011;15940;48.734;9.112;2023-04-25T12:19:15;6.00;;;3.20;;
9524;SDS011;15940;48.734;9.112;2023-04-25T12:21:44;3.73;;;3.50;;
9524;SDS011;15940;48.734;9.112;2023-04-25T12:24:12;4.13;;;3.73;;
9524;SDS011;15940;48.734;9.112;2023-04-25T12:26:47;4.60;;;4.13;;
9524;SDS011;15940;48.734;9.112;2023-04-25T12:29:18;4.67;;;4.27;;
9524;SDS011;15940;48.734;9.112;2023-04-25T12:31:49;4.60;;;4.20;;
9524;SDS011;15940;48.734;9.112;2023-04-25T12:34:18;4.60;;;4.20;;
9524;SDS011;15940;48.734;9.112;2023-04-25T12:36:47;4.70;;;4.30;;
9524;SDS011;15940;48.734;9.112;2023-04-25T12:39:15;4.73;;;4.33;;
9524;SDS011;15940;48.734;9.112;2023-04-25T12:41:42;5.57;;;5.07;;
9524;SDS011;15940;48.734;9.112;2023-04-25T12:44:10;4.60;;;4.13;;
9524;SDS011;15940;48.734;9.112;2023-04-25T12:46:37;5.03;;;4.53;;
9524;SDS011;15940;48.734;9.112;2023-04-25T12:49:07;7.03;;;4.53;;
9524;SDS011;15940;48.734;9.112;2023-04-25T12:51:35;4.40;;;4.00;;
9524;SDS011;15940;48.734;9.112;2023-04-25T12:54:03;4.70;;;4.30;;
9524;SDS011;15940;48.734;9.112;2023-04-25T12:56:31;5.23;;;4.43;;
9524;SDS011;15940;48.734;9.112;2023-04-25T12:58:58;5.13;;;4.50;;
9524;SDS011;15940;48.734;9.112;2023-04-25T13:01:25;5.53;;;4.60;;
9524;SDS011;15940;48.734;9.112;2023-04-25T13:03:52;4.90;;;4.50;;
9524;SDS011;15940;48.734;9.112;2023-04-25T13:06:21;6.73;;;4.47;;
9524;SDS011;15940;48.734;9.112;2023-04-25T13:08:48;4.90;;;4.40;;
9524;SDS011;15940;48.734;9.112;2023-04-25T13:11:15;5.73;;;4.40;;
9524;SDS011;15940;48.734;9.112;2023-04-25T13:13:42;6.13;;;5.00;;
9524;SDS011;15940;48.734;9.112;2023-04-25T13:16:10;5.10;;;4.60;;
9524;SDS011;15940;48.734;9.112;2023-04-25T13:18:38;5.17;;;4.67;;
9524;SDS011;15940;48.734;9.112;2023-04-25T13:21:06;5.20;;;4.80;;
9524;SDS011;15940;48.734;9.112;2023-04-25T13:23:36;6.73;;;4.73;;
9524;SDS011;15940;48.734;9.112;2023-04-25T13:26:03;5.47;;;4.40;;
9524;SDS011;15940;48.734;9.112;2023-04-25T13:28:30;5.00;;;4.40;;
9524;SDS011;15940;48.734;9.112;2023-04-25T13:30:57;5.20;;;4.70;;
9524;SDS011;15940;48.734;9.112;2023-04-25T13:33:24;6.77;;;4.80;;
9524;SDS011;15940;48.734;9.112;2023-04-25T13:35:52;5.17;;;4.70;;
9524;SDS011;15940;48.734;9.112;2023-04-25T13:38:21;6.07;;;5.47;;
9524;SDS011;15940;48.734;9.112;2023-04-25T13:40:50;5.90;;;5.30;;
9524;SDS011;15940;48.734;9.112;2023-04-25T13:43:18;8.37;;;5.53;;
9524;SDS011;15940;48.734;9.112;2023-04-25T13:45:46;8.33;;;5.13;;
9524;SDS011;15940;48.734;9.112;2023-04-25T13:48:13;7.30;;;6.10;;
9524;SDS011;15940;48.734;9.112;2023-04-25T13:50:40;8.33;;;6.10;;
9524;SDS011;15940;48.734;9.112;2023-04-25T13:53:07;8.70;;;5.83;;
9524;SDS011;15940;48.734;9.112;2023-04-25T13:55:35;6.57;;;5.97;;
9524;SDS011;15940;48.734;9.112;2023-04-25T13:58:05;7.33;;;6.10;;
9524;SDS011;15940;48.734;9.112;2023-04-25T14:00:35;7.10;;;5.93;;
9524;SDS011;15940;48.734;9.112;2023-04-25T14:03:04;6.37;;;5.83;;
9524;SDS011;15940;48.734;9.112;2023-04-25T14:05:32;6.83;;;6.13;;
9524;SDS011;15940;48.734;9.112;2023-04-25T14:08:03;7.00;;;6.40;;
9524;SDS011;15940;48.734;9.112;2023-04-25T14:10:32;7.00;;;6.23;;
9524;SDS011;15940;48.734;9.112;2023-04-25T14:12:59;6.70;;;6.00;;
9524;SDS011;15940;48.734;9.112;2023-04-25T14:15:29;6.87;;;6.17;;
9524;SDS011;15940;48.734;9.112;2023-04-25T14:17:57;6.87;;;5.70;;
9524;SDS011;15940;48.734;9.112;2023-04-25T14:20:24;6.80;;;6.00;;
9524;SDS011;15940;48.734;9.112;2023-04-25T14:22:51;6.80;;;6.20;;
9524;SDS011;15940;48.734;9.112;2023-04-25T14:25:19;6.43;;;5.83;;
9524;SDS011;15940;48.734;9.112;2023-04-25T14:27:46;6.30;;;5.70;;
9524;SDS011;15940;48.734;9.112;2023-04-25T14:30:15;6.27;;;5.20;;
9524;SDS011;15940;48.734;9.112;2023-04-25T14:32:43;6.03;;;5.30;;
9524;SDS011;15940;48.734;9.112;2023-04-25T14:35:11;5.30;;;4.80;;
9524;SDS011;15940;48.734;9.112;2023-04-25T14:37:38;5.60;;;4.73;;
9524;SDS011;15940;48.734;9.112;2023-04-25T14:40:05;4.60;;;4.00;;
9524;SDS011;15940;48.734;9.112;2023-04-25T14:42:35;4.77;;;4.37;;
9524;SDS011;15940;48.734;9.112;2023-04-25T14:45:03;5.30;;;3.47;;
9524;SDS011;15940;48.734;9.112;2023-04-25T14:47:32;4.43;;;4.10;;
9524;SDS011;15940;48.734;9.112;2023-04-25T14:50:01;4.77;;;4.30;;
9524;SDS011;15940;48.734;9.112;2023-04-25T14:52:29;4.60;;;4.20;;
9524;SDS011;15940;48.734;9.112;2023-04-25T14:54:56;4.30;;;3.90;;
9524;SDS011;15940;48.734;9.112;2023-04-25T14:57:24;3.97;;;3.67;;
9524;SDS011;15940;48.734;9.112;2023-04-25T14:59:52;5.87;;;4.03;;
9524;SDS011;15940;48.734;9.112;2023-04-25T15:02:19;4.43;;;4.03;;
9524;SDS011;15940;48.734;9.112;2023-04-25T15:04:46;4.60;;;4.20;;
9524;SDS011;15940;48.734;9.112;2023-04-25T15:07:14;5.10;;;3.83;;